createdAt,value
2022-10-18T00:00:48.130Z,75.22
2022-10-18T00:03:49.929Z,75.19
2022-10-18T00:06:51.684Z,75.36
2022-10-18T00:09:54.545Z,75.37
2022-10-18T00:12:56.270Z,75.31
2022-10-18T00:16:01.221Z,75.00
2022-10-18T00:19:03.403Z,74.90
2022-10-18T00:22:05.197Z,75.16
2022-10-18T00:25:08.656Z,74.96
2022-10-18T00:28:10.408Z,74.44
2022-10-18T00:31:21.072Z,74.73
2022-10-18T00:34:22.863Z,75.08
2022-10-18T00:37:24.762Z,75.11
2022-10-18T00:40:26.614Z,74.81
2022-10-18T00:43:28.496Z,75.13
2022-10-18T00:46:33.138Z,75.10
2022-10-18T00:49:41.100Z,75.04
2022-10-18T00:52:48.440Z,75.14
2022-10-18T00:55:50.821Z,75.18
2022-10-18T00:58:52.797Z,74.99
2022-10-18T01:01:54.561Z,75.12
2022-10-18T01:04:56.450Z,75.11
2022-10-18T01:08:28.388Z,74.81
2022-10-18T01:11:58.329Z,75.15
2022-10-18T01:15:17.142Z,74.90
2022-10-18T01:18:37.565Z,75.16
2022-10-18T01:21:48.686Z,75.39
2022-10-18T01:25:15.134Z,75.50
2022-10-18T01:28:49.944Z,75.62
2022-10-18T01:32:01.533Z,75.66
2022-10-18T01:35:08.098Z,75.66
2022-10-18T01:38:17.161Z,75.78
2022-10-18T01:41:22.505Z,75.50
2022-10-18T01:44:26.957Z,75.73
2022-10-18T01:47:29.467Z,76.16
2022-10-18T01:50:33.906Z,76.48
2022-10-18T01:53:35.959Z,76.16
2022-10-18T01:57:02.661Z,76.14
2022-10-18T02:00:22.241Z,76.47
2022-10-18T02:03:28.095Z,75.94
2022-10-18T02:06:35.758Z,76.19
2022-10-18T02:09:46.978Z,76.41
2022-10-18T02:12:51.076Z,76.10
2022-10-18T02:15:59.604Z,76.39
2022-10-18T02:19:09.238Z,76.17
2022-10-18T02:22:12.897Z,76.23
2022-10-18T02:25:20.387Z,76.23
2022-10-18T02:28:22.522Z,76.63
2022-10-18T02:31:37.493Z,76.69
2022-10-18T02:34:46.652Z,76.49
2022-10-18T02:37:50.413Z,76.52
2022-10-18T02:40:52.298Z,76.85
2022-10-18T02:43:54.449Z,76.93
2022-10-18T02:46:56.277Z,76.83
2022-10-18T02:49:58.048Z,76.91
2022-10-18T02:52:59.806Z,76.70
2022-10-18T02:56:03.238Z,76.72
2022-10-18T02:59:07.372Z,76.62
2022-10-18T03:02:09.104Z,76.73
2022-10-18T03:05:10.853Z,76.55
2022-10-18T03:08:12.639Z,76.42
2022-10-18T03:11:14.471Z,76.39
2022-10-18T03:14:16.239Z,76.37
2022-10-18T03:17:17.976Z,76.33
2022-10-18T03:20:19.954Z,76.27
2022-10-18T03:23:21.762Z,76.68
2022-10-18T03:26:23.475Z,76.38
2022-10-18T03:29:25.268Z,76.58
2022-10-18T03:32:27.080Z,76.64
2022-10-18T03:35:28.892Z,76.59
2022-10-18T03:38:31.134Z,76.88
2022-10-18T03:41:33.517Z,76.75
2022-10-18T03:44:35.294Z,77.06
2022-10-18T03:47:37.045Z,77.07
2022-10-18T03:50:38.930Z,76.91
2022-10-18T03:53:40.720Z,76.79
2022-10-18T03:56:42.421Z,76.49
2022-10-18T03:59:44.229Z,76.54
2022-10-18T04:02:46.428Z,76.47
2022-10-18T04:05:49.286Z,76.58
2022-10-18T04:08:51.048Z,76.31
2022-10-18T04:11:53.061Z,76.18
2022-10-18T04:14:55.708Z,76.53
2022-10-18T04:17:57.645Z,76.39
2022-10-18T04:20:59.430Z,76.56
2022-10-18T04:24:01.207Z,76.29
2022-10-18T04:27:03.078Z,76.07
2022-10-18T04:30:05.353Z,76.08
2022-10-18T04:33:07.076Z,75.72
2022-10-18T04:36:08.914Z,76.06
2022-10-18T04:39:10.760Z,76.26
2022-10-18T04:42:12.567Z,75.91
2022-10-18T04:45:14.501Z,75.78
2022-10-18T04:48:16.772Z,75.33
2022-10-18T04:51:18.577Z,75.68
2022-10-18T04:54:21.896Z,75.65
2022-10-18T04:57:25.682Z,75.59
2022-10-18T05:00:28.251Z,75.78
2022-10-18T05:03:30.063Z,75.59
2022-10-18T05:06:31.787Z,75.32
2022-10-18T05:09:34.041Z,75.32
2022-10-18T05:12:35.890Z,75.02
2022-10-18T05:15:37.710Z,74.19
2022-10-18T05:18:39.559Z,74.08
2022-10-18T05:21:41.357Z,74.04
2022-10-18T05:24:43.102Z,73.66
2022-10-18T05:27:44.937Z,73.42
2022-10-18T05:30:46.730Z,72.90
2022-10-18T05:33:48.551Z,73.03
2022-10-18T05:36:50.421Z,72.66
2022-10-18T05:39:52.209Z,72.65
2022-10-18T05:42:54.016Z,72.50
2022-10-18T05:45:55.929Z,72.33
2022-10-18T05:48:57.791Z,71.73
2022-10-18T05:51:59.543Z,71.76
2022-10-18T05:55:01.827Z,72.04
2022-10-18T05:58:04.269Z,71.96
2022-10-18T06:01:06.979Z,71.58
2022-10-18T06:04:13.059Z,71.35
2022-10-18T06:07:14.868Z,71.05
2022-10-18T06:10:16.843Z,70.84
2022-10-18T06:13:18.811Z,70.66
2022-10-18T06:16:22.671Z,70.73
2022-10-18T06:19:24.468Z,70.10
2022-10-18T06:22:26.197Z,69.71
2022-10-18T06:25:28.018Z,69.19
2022-10-18T06:28:30.303Z,68.86
2022-10-18T06:31:32.135Z,68.39
2022-10-18T06:34:34.538Z,67.42
2022-10-18T06:37:37.677Z,66.55
2022-10-18T06:40:39.487Z,65.96
2022-10-18T06:43:41.320Z,65.36
2022-10-18T06:46:45.016Z,64.68
2022-10-18T06:49:46.804Z,64.35
2022-10-18T06:52:49.570Z,63.41
2022-10-18T06:55:51.564Z,61.93
2022-10-18T06:58:53.564Z,61.13
2022-10-18T07:01:55.411Z,61.24
2022-10-18T07:04:57.442Z,60.42
2022-10-18T07:07:59.380Z,60.34
2022-10-18T07:11:01.825Z,60.19
2022-10-18T07:14:04.963Z,60.13
2022-10-18T07:17:06.837Z,60.05
2022-10-18T07:20:09.069Z,59.57
2022-10-18T07:23:11.710Z,59.16
2022-10-18T07:26:21.065Z,58.75
2022-10-18T07:29:23.004Z,58.13
2022-10-18T07:32:24.853Z,57.36
2022-10-18T07:35:26.672Z,57.48
2022-10-18T07:38:28.504Z,56.44
2022-10-18T07:41:33.225Z,55.72
2022-10-18T07:44:35.148Z,54.78
2022-10-18T07:47:37.280Z,55.25
2022-10-18T07:50:39.384Z,53.63
2022-10-18T07:53:41.174Z,53.48
2022-10-18T07:56:43.207Z,53.61
2022-10-18T07:59:47.991Z,52.89
2022-10-18T08:02:49.722Z,52.57
2022-10-18T08:05:53.319Z,53.22
2022-10-18T08:08:55.134Z,53.47
2022-10-18T08:11:57.019Z,52.78
2022-10-18T08:14:58.747Z,52.98
2022-10-18T08:18:00.556Z,52.49
2022-10-18T08:21:04.961Z,51.44
2022-10-18T08:24:06.953Z,50.50
2022-10-18T08:27:08.751Z,48.65
2022-10-18T08:30:10.922Z,47.95
2022-10-18T08:33:12.739Z,47.03
2022-10-18T08:36:16.885Z,46.06
2022-10-18T08:39:18.608Z,46.00
2022-10-18T08:42:29.816Z,43.84
2022-10-18T08:45:42.483Z,45.04
2022-10-18T08:48:50.417Z,44.48
2022-10-18T08:51:52.984Z,43.95
2022-10-18T08:55:18.646Z,42.04
2022-10-18T08:58:26.727Z,42.62
2022-10-18T09:02:15.563Z,41.35
2022-10-18T09:05:20.604Z,41.06
2022-10-18T09:09:00.655Z,39.26
2022-10-18T09:12:17.365Z,39.62
2022-10-18T09:15:59.951Z,39.52
2022-10-18T09:19:26.635Z,37.68
2022-10-18T09:22:53.325Z,36.94
2022-10-18T09:26:13.884Z,37.57
2022-10-18T09:29:28.947Z,36.40
2022-10-18T09:32:33.992Z,36.58
2022-10-18T09:35:49.399Z,36.43
2022-10-18T09:39:00.589Z,35.76
2022-10-18T09:42:26.954Z,35.92
2022-10-18T09:45:39.900Z,34.95
2022-10-18T09:48:51.290Z,35.39
2022-10-18T09:51:54.099Z,35.63
2022-10-18T09:55:03.325Z,34.69
2022-10-18T09:58:08.067Z,34.70
2022-10-18T10:01:12.990Z,34.49
2022-10-18T10:04:15.454Z,34.35
2022-10-18T10:07:21.980Z,34.36
2022-10-18T10:10:25.894Z,34.89
2022-10-18T10:13:28.007Z,35.11
2022-10-18T10:16:30.188Z,35.63
2022-10-18T10:19:53.612Z,35.96
2022-10-18T10:23:06.219Z,36.36
2022-10-18T10:26:22.087Z,34.83
2022-10-18T10:30:01.543Z,35.16
2022-10-18T10:33:26.830Z,36.21
2022-10-18T10:36:32.199Z,35.54
2022-10-18T10:39:33.981Z,35.36
2022-10-18T10:42:39.089Z,34.97
2022-10-18T10:46:08.911Z,34.80
2022-10-18T10:49:39.119Z,35.37
2022-10-18T10:52:43.598Z,35.33
2022-10-18T10:55:46.295Z,35.55
2022-10-18T10:58:49.023Z,35.37
2022-10-18T11:02:20.635Z,35.28
2022-10-18T11:05:29.466Z,35.17
2022-10-18T11:08:42.077Z,34.82
2022-10-18T11:11:55.463Z,34.61
2022-10-18T11:15:32.804Z,35.64
2022-10-18T11:18:36.838Z,35.58
2022-10-18T11:21:40.113Z,35.77
2022-10-18T11:24:41.987Z,35.94
2022-10-18T11:27:55.261Z,35.85
2022-10-18T11:31:20.168Z,36.50
2022-10-18T11:34:24.953Z,36.39
2022-10-18T11:37:38.412Z,36.31
2022-10-18T11:40:43.342Z,36.17
2022-10-18T11:44:02.634Z,35.00
2022-10-18T11:47:20.180Z,35.22
2022-10-18T11:50:30.785Z,35.49
2022-10-18T11:53:41.000Z,34.25
2022-10-18T11:56:57.835Z,34.80
2022-10-18T12:00:08.991Z,34.77
2022-10-18T12:03:42.737Z,34.08
2022-10-18T12:06:47.400Z,35.17
2022-10-18T12:09:53.297Z,34.78
2022-10-18T12:13:02.051Z,34.92
2022-10-18T12:16:07.111Z,33.86
2022-10-18T12:19:23.407Z,34.35
2022-10-18T12:22:36.036Z,33.86
2022-10-18T12:25:42.040Z,33.52
2022-10-18T12:28:47.031Z,33.82
2022-10-18T12:31:54.641Z,33.88
2022-10-18T12:35:16.400Z,33.77
2022-10-18T12:38:25.283Z,32.64
2022-10-18T12:41:30.270Z,34.21
2022-10-18T12:44:34.612Z,33.96
2022-10-18T12:47:36.737Z,34.34
2022-10-18T12:50:42.153Z,34.27
2022-10-18T12:53:50.524Z,33.70
2022-10-18T12:56:52.733Z,33.94
2022-10-18T12:59:54.621Z,34.57
2022-10-18T13:03:25.693Z,34.65
2022-10-18T13:07:05.513Z,34.41
2022-10-18T13:10:10.148Z,33.43
2022-10-18T13:13:38.564Z,33.74
2022-10-18T13:16:55.255Z,33.44
2022-10-18T13:20:25.181Z,33.67
2022-10-18T13:23:59.656Z,33.29
2022-10-18T13:27:24.528Z,33.73
2022-10-18T13:30:50.548Z,34.33
2022-10-18T13:33:52.709Z,33.91
2022-10-18T13:37:25.664Z,33.96
2022-10-18T13:40:27.537Z,34.47
2022-10-18T13:43:54.347Z,34.44
2022-10-18T13:46:56.122Z,34.73
2022-10-18T13:53:43.318Z,35.37
2022-10-18T13:57:09.547Z,35.26
2022-10-18T14:00:49.116Z,35.56
2022-10-18T14:04:20.306Z,35.49
2022-10-18T14:07:25.488Z,35.87
2022-10-18T14:11:01.292Z,35.15
2022-10-18T14:14:13.729Z,36.04
2022-10-18T14:17:43.076Z,36.26
2022-10-18T14:21:12.175Z,36.48
2022-10-18T14:24:23.544Z,37.12
2022-10-18T14:27:34.386Z,37.50
2022-10-18T14:30:37.413Z,37.64
2022-10-18T14:33:43.008Z,37.92
2022-10-18T14:36:48.460Z,37.98
2022-10-18T14:39:50.585Z,38.20
2022-10-18T14:42:52.359Z,38.49
2022-10-18T14:45:54.207Z,38.63
2022-10-18T14:49:01.427Z,38.85
2022-10-18T14:52:03.281Z,38.93
2022-10-18T14:55:05.570Z,39.35
2022-10-18T14:58:15.911Z,39.59
2022-10-18T15:01:20.410Z,39.66
2022-10-18T15:04:27.832Z,39.75
2022-10-18T15:07:32.350Z,40.62
2022-10-18T15:10:35.299Z,40.41
2022-10-18T15:13:41.834Z,40.81
2022-10-18T15:16:43.959Z,40.88
2022-10-18T15:19:57.724Z,41.93
2022-10-18T15:23:24.498Z,42.20
2022-10-18T15:26:29.963Z,42.64
2022-10-18T15:29:33.460Z,42.84
2022-10-18T15:32:35.581Z,43.06
2022-10-18T15:35:39.135Z,43.49
2022-10-18T15:38:40.974Z,43.41
2022-10-18T15:42:05.241Z,43.27
2022-10-18T15:45:33.504Z,43.84
2022-10-18T15:48:40.569Z,43.98
2022-10-18T15:51:49.977Z,43.67
2022-10-18T15:54:51.795Z,43.65
2022-10-18T15:57:53.644Z,44.84
2022-10-18T16:01:02.521Z,44.68
2022-10-18T16:04:19.022Z,45.48
2022-10-18T16:07:21.281Z,45.16
2022-10-18T16:10:23.124Z,44.71
2022-10-18T16:13:26.331Z,44.82
2022-10-18T16:16:29.337Z,44.80
2022-10-18T16:19:32.273Z,44.80
2022-10-18T16:22:36.307Z,45.21
2022-10-18T16:25:39.071Z,44.99
2022-10-18T16:28:41.028Z,45.21
2022-10-18T16:31:43.143Z,45.37
2022-10-18T16:34:44.918Z,45.40
2022-10-18T16:37:46.868Z,45.62
2022-10-18T16:40:48.794Z,45.71
2022-10-18T16:43:51.535Z,45.79
2022-10-18T16:46:54.111Z,46.30
2022-10-18T16:50:01.513Z,46.47
2022-10-18T16:53:05.951Z,46.39
2022-10-18T16:56:22.341Z,46.48
2022-10-18T16:59:29.427Z,46.44
2022-10-18T17:02:31.518Z,46.37
2022-10-18T17:05:33.832Z,46.57
2022-10-18T17:08:35.732Z,46.88
2022-10-18T17:11:37.554Z,46.72
2022-10-18T17:14:39.376Z,46.58
2022-10-18T17:17:41.275Z,46.75
2022-10-18T17:20:43.658Z,46.79
2022-10-18T17:23:45.625Z,47.02
2022-10-18T17:26:47.470Z,47.06
2022-10-18T17:29:49.535Z,47.01
2022-10-18T17:32:51.378Z,47.25
2022-10-18T17:35:53.219Z,46.86
2022-10-18T17:38:55.519Z,46.98
2022-10-18T17:41:57.655Z,46.95
2022-10-18T17:44:59.564Z,46.98
2022-10-18T17:48:02.470Z,46.81
2022-10-18T17:51:13.237Z,46.89
2022-10-18T17:54:15.151Z,47.00
2022-10-18T17:57:17.627Z,46.96
2022-10-18T18:00:19.598Z,46.79
2022-10-18T18:03:21.534Z,46.59
2022-10-18T18:06:33.950Z,46.77
2022-10-18T18:09:35.774Z,46.80
2022-10-18T18:12:37.538Z,47.06
2022-10-18T18:15:39.387Z,46.89
2022-10-18T18:18:41.605Z,47.11
2022-10-18T18:21:43.602Z,47.01
2022-10-18T18:24:45.607Z,47.13
2022-10-18T18:27:47.489Z,47.04
2022-10-18T18:30:49.470Z,47.12
2022-10-18T18:33:54.430Z,47.04
2022-10-18T18:36:56.421Z,47.07
2022-10-18T18:39:58.337Z,47.05
2022-10-18T18:43:07.074Z,47.02
2022-10-18T18:46:14.212Z,47.08
2022-10-18T18:49:16.068Z,47.56
2022-10-18T18:52:17.857Z,47.61
2022-10-18T18:55:19.687Z,47.67
2022-10-18T18:58:21.511Z,47.88
2022-10-18T19:01:26.289Z,47.82
2022-10-18T19:04:29.150Z,48.03
2022-10-18T19:07:31.250Z,48.71
2022-10-18T19:10:33.396Z,48.44
2022-10-18T19:13:35.367Z,48.58
2022-10-18T19:16:45.618Z,48.60
2022-10-18T19:19:47.500Z,48.73
2022-10-18T19:22:49.446Z,49.01
2022-10-18T19:25:51.253Z,49.27
2022-10-18T19:28:53.337Z,49.19
2022-10-18T19:31:57.620Z,49.30
2022-10-18T19:34:59.373Z,49.39
2022-10-18T19:38:01.188Z,49.47
2022-10-18T19:41:02.955Z,49.41
2022-10-18T19:44:05.012Z,49.55
2022-10-18T19:47:09.990Z,49.57
2022-10-18T19:50:11.796Z,49.74
2022-10-18T19:53:13.613Z,49.75
2022-10-18T19:56:19.860Z,50.06
2022-10-18T19:59:22.878Z,50.30
2022-10-18T20:02:24.686Z,50.42
2022-10-18T20:05:26.777Z,50.42
2022-10-18T20:08:31.434Z,50.73
2022-10-18T20:11:34.202Z,50.82
2022-10-18T20:14:35.990Z,50.98
2022-10-18T20:17:37.909Z,51.12
2022-10-18T20:20:40.419Z,51.22
2022-10-18T20:23:44.763Z,51.32
2022-10-18T20:26:46.629Z,51.50
2022-10-18T20:29:48.460Z,51.26
2022-10-18T20:32:53.611Z,51.78
2022-10-18T20:35:55.527Z,51.88
2022-10-18T20:38:57.994Z,52.12
2022-10-18T20:41:59.830Z,52.29
2022-10-18T20:45:01.774Z,52.18
2022-10-18T20:48:03.637Z,52.12
2022-10-18T20:51:12.717Z,52.57
2022-10-18T20:54:14.501Z,52.75
2022-10-18T20:57:16.199Z,53.25
2022-10-18T21:00:18.090Z,53.17
2022-10-18T21:03:19.863Z,53.42
2022-10-18T21:06:30.756Z,53.67
2022-10-18T21:09:32.487Z,53.60
2022-10-18T21:12:35.171Z,53.87
2022-10-18T21:15:37.274Z,54.05
2022-10-18T21:18:40.435Z,54.18
2022-10-18T21:21:44.100Z,54.43
2022-10-18T21:24:46.601Z,54.63
2022-10-18T21:27:48.487Z,54.89
2022-10-18T21:30:50.270Z,54.96
2022-10-18T21:33:55.227Z,55.26
2022-10-18T21:36:56.921Z,55.39
2022-10-18T21:39:58.738Z,55.43
2022-10-18T21:43:00.565Z,55.66
2022-10-18T21:46:02.583Z,56.05
2022-10-18T21:49:04.373Z,56.22
2022-10-18T21:52:06.506Z,56.53
2022-10-18T21:55:08.555Z,56.52
2022-10-18T21:58:10.554Z,56.93
2022-10-18T22:01:19.697Z,57.25
2022-10-18T22:04:23.874Z,57.31
2022-10-18T22:07:25.690Z,57.51
2022-10-18T22:10:27.436Z,57.55
2022-10-18T22:13:29.234Z,57.63
2022-10-18T22:16:31.034Z,57.77
2022-10-18T22:19:32.816Z,57.86
2022-10-18T22:22:34.580Z,58.07
2022-10-18T22:25:36.795Z,58.37
2022-10-18T22:28:40.304Z,58.20
2022-10-18T22:31:45.854Z,58.46
2022-10-18T22:34:47.643Z,58.67
2022-10-18T22:37:49.435Z,58.97
2022-10-18T22:40:51.858Z,58.96
2022-10-18T22:43:55.543Z,58.88
2022-10-18T22:46:59.116Z,59.00
2022-10-18T22:50:00.877Z,59.37
2022-10-18T22:53:02.637Z,59.77
2022-10-18T22:56:05.428Z,59.71
2022-10-18T22:59:07.187Z,59.95
2022-10-18T23:02:09.708Z,60.04
2022-10-18T23:05:11.649Z,60.05
2022-10-18T23:08:14.257Z,60.26
2022-10-18T23:11:16.579Z,60.17
2022-10-18T23:14:18.863Z,60.28
2022-10-18T23:17:20.628Z,60.30
2022-10-18T23:20:22.423Z,60.58
2022-10-18T23:23:24.252Z,60.64
2022-10-18T23:26:27.724Z,60.64
2022-10-18T23:29:29.520Z,60.83
2022-10-18T23:32:31.785Z,61.30
2022-10-18T23:35:33.778Z,61.39
2022-10-18T23:38:36.685Z,61.51
2022-10-18T23:41:38.318Z,62.34
2022-10-18T23:44:40.121Z,61.81
2022-10-18T23:47:41.846Z,61.85
2022-10-18T23:50:43.742Z,62.12
2022-10-18T23:53:45.557Z,62.16
2022-10-18T23:56:47.367Z,62.51
2022-10-18T23:59:49.206Z,62.63
